Farina, IL

1:40 PM CST on December 07, 2016 (GMT -0600)
N. Teutopolis 1 | | Change Station

Elev 587 ft 39.16 °N, 88.49 °W | Updated 10 minutes ago

Overcast
Overcast
35.3 °F
Feels Like 30 °F
N
6.0
Wind Variable Wind from West
Gusts 10.0 mph

Today
High -- | Low -- °F
--% Chance of Precip.
Yesterday
High -- | Low -- °F
Precip. -- in
Pressure 30.20 in
Visibility 10.0 miles
Clouds Overcast 10000 ft
Windchill 30 °F
Dew Point 25.0 °F
Humidity 66%
Rainfall 0.00 in
Snow Depth Not available.
7:00 AM 4:33 PM
First Quarter, 55% visible
METAR KSLO 071935Z AUTO 28009KT 10SM OVC100 03/M06 A3020 RMK AO2 T00261057
Pressure 30.20 in
Visibility 10.0 miles
Clouds Overcast 10000 ft
Windchill 30 °F
Dew Point 25.0 °F
Humidity 66%
Rainfall 0.00 in
Snow Depth Not available.
7:00 AM 4:33 PM
First Quarter, 55% visible
METAR KSLO 071935Z AUTO 28009KT 10SM OVC100 03/M06 A3020 RMK AO2 T00261057

10-Day Weather Forecast

Almanac

Astronomy

Dec. 07, 2016 Rise Set
Actual Time
Civil Twilight
Nautical Twilight
Astronomical Twilight
Moon
Length of Visible Light
Length of Day
Tomorrow will be .
, % of the Moon is Illuminated

Today's Extremes

State Highs State Lows

Community

WunderPhotos

Upload Photos

1,956,164 photos uploaded!

WunderBlog® & News

Nearby

Air Quality

  Air Quality AQ Index Pollutant
Not available.

Snow Depth

Station Depth Elevation

Earthquake Activity

City Distance Mag. Time & Date
Minimum magnitude displayed is 2.5.

Coastal Water Temperatures

Place Temperature

Stations

Nearby Weather Stations

Station Location Temp. Windchill Dew Point Humidity Wind Precip. Elev Updated Type
                   

Watches & Warnings

There are currently no watches in effect.